Time;durP1;ratioP1;P1;durP2;ratioP2;P2;SDS_P1;SDS_P2;PMS_P1;PMS_P2;Temp;Humidity;BMP_temperature;BMP_pressure;BME280_temperature;BME280_humidity;BME280_pressure;Samples;Min_cycle;Max_cycle;Signal;HPM_P1;HPM_P2
2022/10/02 00:01:48;;;;;;;2.80;2.30;;;;;;;16.62;86.66;94646.00;5010353;28;20289;-68
2022/10/02 00:04:22;;;;;;;4.85;2.65;;;;;;;16.61;86.54;94634.59;5010652;28;20225;-69
2022/10/02 00:06:50;;;;;;;4.90;2.38;;;;;;;16.59;86.71;94649.06;5007970;28;20186;-69
2022/10/02 00:09:30;;;;;;;4.35;1.80;;;;;;;16.65;85.97;94638.50;5009635;28;20202;-69
2022/10/02 00:11:58;;;;;;;5.82;2.45;;;;;;;16.63;86.14;94648.47;5024377;28;20288;-68
2022/10/02 00:14:27;;;;;;;5.47;2.28;;;;;;;16.60;86.77;94646.22;5006692;28;20205;-68
2022/10/02 00:16:56;;;;;;;3.30;2.08;;;;;;;16.64;86.78;94642.16;5002866;28;20198;-68
2022/10/02 00:19:22;;;;;;;3.38;2.20;;;;;;;16.63;86.91;94637.06;5010197;28;20273;-69
2022/10/02 00:22:20;;;;;;;2.78;2.10;;;;;;;16.69;86.00;94647.69;5009239;28;20281;-68
2022/10/02 00:24:51;;;;;;;4.80;2.42;;;;;;;16.69;86.11;94660.94;4964745;28;20192;-68
2022/10/02 00:27:55;;;;;;;4.75;2.63;;;;;;;16.73;86.18;94664.03;4964793;28;20208;-68
2022/10/02 00:30:20;;;;;;;5.65;2.65;;;;;;;16.68;85.71;94664.63;4895780;29;20265;-68
2022/10/02 00:33:02;;;;;;;3.72;2.95;;;;;;;16.67;86.16;94668.28;4908169;29;20254;-71
2022/10/02 00:35:38;;;;;;;10.07;3.30;;;;;;;16.57;86.45;94657.22;4892074;29;20228;-67
2022/10/02 00:38:21;;;;;;;4.30;3.10;;;;;;;16.55;86.61;94656.63;4908984;29;20194;-68
2022/10/02 00:41:08;;;;;;;4.93;3.60;;;;;;;16.48;86.88;94664.53;4905058;29;20198;-68
2022/10/02 00:44:18;;;;;;;4.38;3.50;;;;;;;16.47;87.29;94675.34;4885604;29;20534;-68
2022/10/02 00:47:01;;;;;;;4.68;3.50;;;;;;;16.45;86.76;94688.00;4893622;29;20209;-69
2022/10/02 00:49:38;;;;;;;4.57;3.67;;;;;;;16.46;86.46;94690.44;4909011;29;20230;-68
2022/10/02 00:52:19;;;;;;;4.68;3.72;;;;;;;16.50;86.05;94701.50;4896146;29;20214;-68
2022/10/02 00:54:44;;;;;;;5.43;3.67;;;;;;;16.51;86.06;94692.50;4896168;29;20245;-69
2022/10/02 00:57:28;;;;;;;4.07;3.55;;;;;;;16.42;85.24;94705.13;4894212;29;20202;-69
2022/10/02 01:00:17;;;;;;;5.05;4.00;;;;;;;16.40;86.19;94698.38;4890947;29;20199;-68
2022/10/02 01:02:50;;;;;;;6.43;4.10;;;;;;;16.49;85.42;94699.84;4878321;29;20218;-68
2022/10/02 01:05:16;;;;;;;6.65;4.35;;;;;;;16.48;85.06;94703.53;4897290;29;20229;-68
2022/10/02 01:07:45;;;;;;;4.25;3.83;;;;;;;16.50;84.82;94701.50;4910329;29;20225;-68
2022/10/02 01:10:12;;;;;;;4.20;3.80;;;;;;;16.44;84.51;94697.81;4904642;29;20199;-67
2022/10/02 01:12:38;;;;;;;4.00;3.38;;;;;;;16.48;83.88;94703.53;4913213;29;20189;-68
2022/10/02 01:15:15;;;;;;;3.55;3.25;;;;;;;16.49;83.89;94718.41;4901972;29;20238;-68
2022/10/02 01:17:41;;;;;;;3.30;3.00;;;;;;;16.53;82.94;94722.34;4914715;29;20210;-68
2022/10/02 01:20:15;;;;;;;3.63;3.17;;;;;;;16.47;81.44;94717.81;4912449;29;20273;-68
2022/10/02 01:22:57;;;;;;;3.58;2.58;;;;;;;16.34;80.91;94707.13;4933615;28;20206;-68
2022/10/02 01:25:22;;;;;;;3.13;2.90;;;;;;;16.32;81.04;94718.72;4946140;29;20203;-67
2022/10/02 01:27:51;;;;;;;3.33;2.33;;;;;;;16.36;79.56;94716.53;4951243;29;20196;-66
2022/10/02 01:30:18;;;;;;;2.28;2.08;;;;;;;16.23;78.23;94722.56;4949414;28;20196;-68
2022/10/02 01:32:52;;;;;;;2.28;2.08;;;;;;;16.19;78.15;94725.78;4948132;29;20217;-69
2022/10/02 01:35:20;;;;;;;2.13;1.92;;;;;;;16.18;78.48;94727.63;4945617;28;20193;-66
2022/10/02 01:37:47;;;;;;;2.40;2.05;;;;;;;16.11;77.66;94726.75;4941323;29;20299;-67
2022/10/02 01:40:26;;;;;;;2.60;2.13;;;;;;;16.13;76.73;94730.03;5008235;28;20256;-68
2022/10/02 01:42:54;;;;;;;2.20;1.83;;;;;;;15.94;77.17;94728.88;5030967;28;20182;-67
2022/10/02 01:45:31;;;;;;;2.50;1.95;;;;;;;15.93;77.03;94732.56;5034482;28;20780;-68
2022/10/02 01:48:39;;;;;;;1.83;1.73;;;;;;;15.91;75.95;94739.88;5044397;28;20206;-68
2022/10/02 01:51:23;;;;;;;2.75;1.58;;;;;;;15.95;75.87;94737.66;5003462;28;20221;-67
2022/10/02 01:53:51;;;;;;;2.55;1.52;;;;;;;15.89;75.44;94736.59;5010346;28;20198;-67
2022/10/02 01:56:36;;;;;;;1.60;1.50;;;;;;;15.85;75.69;94748.56;5004959;28;20200;-67
2022/10/02 01:59:20;;;;;;;2.15;1.98;;;;;;;15.82;75.77;94733.88;4998149;28;20192;-67
2022/10/02 02:01:48;;;;;;;2.95;1.90;;;;;;;15.70;76.49;94745.19;5001331;28;20245;-69
2022/10/02 02:04:31;;;;;;;1.95;1.75;;;;;;;15.61;76.67;94742.63;4993598;28;20195;-68
2022/10/02 02:07:24;;;;;;;2.58;1.95;;;;;;;15.63;76.12;94740.59;5013340;28;20238;-68
2022/10/02 02:10:23;;;;;;;1.55;1.40;;;;;;;15.52;75.08;94741.09;4990361;28;20210;-68
2022/10/02 02:12:59;;;;;;;1.30;1.20;;;;;;;15.55;75.37;94745.19;4961874;28;20196;-68
2022/10/02 02:15:31;;;;;;;2.72;1.27;;;;;;;15.55;73.91;94747.84;4953476;29;20211;-68
2022/10/02 02:18:09;;;;;;;2.97;1.30;;;;;;;15.43;73.95;94752.84;4942612;29;20197;-68
2022/10/02 02:20:46;;;;;;;1.92;1.48;;;;;;;15.33;74.80;94773.50;4943642;29;20192;-68
2022/10/02 02:23:16;;;;;;;1.30;1.20;;;;;;;15.39;74.72;94784.16;4946913;29;20695;-69
2022/10/02 02:25:44;;;;;;;2.05;1.13;;;;;;;15.54;74.54;94781.50;4954117;28;20193;-68
2022/10/02 02:28:13;;;;;;;1.55;1.10;;;;;;;15.48;73.86;94789.38;4968750;28;20223;-68
2022/10/02 02:30:44;;;;;;;2.42;1.15;;;;;;;15.52;74.03;94783.50;4974520;28;20287;-67
2022/10/02 02:33:16;;;;;;;1.83;1.17;;;;;;;15.47;73.46;94795.66;4965894;28;20195;-68
2022/10/02 02:35:46;;;;;;;1.13;1.13;;;;;;;15.51;73.10;94802.25;4984185;28;20197;-67
2022/10/02 02:38:20;;;;;;;1.48;1.38;;;;;;;15.43;73.38;94798.69;4972975;28;20276;-67
2022/10/02 02:40:46;;;;;;;1.40;1.30;;;;;;;15.46;72.68;94794.84;4979129;28;20243;-67
2022/10/02 02:43:20;;;;;;;1.35;1.17;;;;;;;15.54;72.52;94805.34;4966970;28;20199;-67
2022/10/02 02:45:56;;;;;;;1.58;1.02;;;;;;;15.36;72.65;94799.63;4981790;28;20183;-68
2022/10/02 02:48:24;;;;;;;2.15;1.10;;;;;;;15.48;71.95;94806.09;4976968;28;20231;-68
2022/10/02 02:50:56;;;;;;;1.83;1.20;;;;;;;15.29;73.14;94804.03;5024792;28;20221;-68
2022/10/02 02:53:32;;;;;;;1.40;1.10;;;;;;;15.30;73.20;94801.19;5031688;28;20544;-68
2022/10/02 02:55:59;;;;;;;1.73;1.08;;;;;;;15.47;72.51;94816.88;5034755;28;20217;-68
2022/10/02 02:58:47;;;;;;;2.47;1.30;;;;;;;15.53;71.97;94810.81;5035865;28;20179;-68
2022/10/02 03:01:13;;;;;;;3.78;1.30;;;;;;;15.48;72.12;94824.66;5040708;28;20186;-68
2022/10/02 03:03:38;;;;;;;1.58;1.35;;;;;;;15.50;72.32;94825.25;5041001;28;20235;-68
2022/10/02 03:06:19;;;;;;;1.95;1.58;;;;;;;15.38;72.49;94832.88;5036544;28;20190;-68
2022/10/02 03:08:49;;;;;;;1.55;1.45;;;;;;;15.22;73.38;94841.03;5021335;28;20225;-69
2022/10/02 03:11:45;;;;;;;2.33;1.40;;;;;;;15.26;73.41;94842.28;5019335;28;20193;-69
2022/10/02 03:14:38;;;;;;;2.20;1.48;;;;;;;15.32;73.15;94852.16;5017250;28;20186;-69
2022/10/02 03:17:22;;;;;;;2.35;1.60;;;;;;;15.28;73.16;94856.19;5036371;28;20188;-68
2022/10/02 03:20:10;;;;;;;1.70;1.60;;;;;;;15.21;73.10;94850.81;5036386;28;20447;-68
2022/10/02 03:23:00;;;;;;;5.80;1.70;;;;;;;15.28;71.99;94848.25;5045783;28;20415;-69
2022/10/02 03:25:45;;;;;;;2.20;1.98;;;;;;;15.18;73.18;94856.50;5029125;28;20260;-69
2022/10/02 03:28:17;;;;;;;4.13;2.20;;;;;;;15.18;72.50;94864.44;5034018;28;20186;-69
2022/10/02 03:30:44;;;;;;;2.85;2.28;;;;;;;15.17;72.98;94861.94;5029463;28;20229;-67
2022/10/02 03:33:13;;;;;;;2.90;2.30;;;;;;;15.25;72.39;94864.50;5017113;28;20198;-68
2022/10/02 03:35:40;;;;;;;3.53;2.35;;;;;;;15.22;72.30;94862.22;5038160;28;20216;-68
2022/10/02 03:38:08;;;;;;;2.60;2.40;;;;;;;15.14;72.79;94862.31;5028706;28;20254;-68
2022/10/02 03:40:34;;;;;;;2.60;2.30;;;;;;;15.08;73.21;94860.41;5032039;28;20248;-68
2022/10/02 03:43:00;;;;;;;4.05;2.58;;;;;;;15.07;72.84;94864.88;5041093;28;20189;-68
2022/10/02 03:45:27;;;;;;;3.03;2.80;;;;;;;15.01;73.67;94868.25;5036665;28;20181;-67
2022/10/02 03:47:53;;;;;;;4.05;2.58;;;;;;;15.09;72.81;94881.41;5034447;28;20177;-68
2022/10/02 03:50:20;;;;;;;3.08;2.70;;;;;;;14.98;72.85;94877.38;5019556;28;20193;-69
2022/10/02 03:52:49;;;;;;;2.92;2.65;;;;;;;14.99;73.15;94881.69;5037213;28;20224;-69
2022/10/02 03:55:17;;;;;;;4.07;2.70;;;;;;;14.98;73.46;94887.97;5039643;28;20281;-69
2022/10/02 03:57:45;;;;;;;2.92;2.72;;;;;;;14.95;73.51;94900.78;5035639;28;20183;-68
2022/10/02 04:00:18;;;;;;;4.75;2.67;;;;;;;14.90;73.67;94885.41;5019411;28;20202;-68
2022/10/02 04:02:59;;;;;;;2.67;2.47;;;;;;;14.90;73.83;94898.66;5032884;28;20225;-69
2022/10/02 04:05:54;;;;;;;3.08;2.88;;;;;;;14.88;73.92;94898.00;5038532;28;20186;-68
2022/10/02 04:08:35;;;;;;;2.63;2.45;;;;;;;14.88;73.01;94890.06;5037934;28;20206;-68
2022/10/02 04:11:35;;;;;;;2.80;2.45;;;;;;;14.87;73.32;94903.50;5023797;28;20195;-68
2022/10/02 04:14:27;;;;;;;3.38;2.60;;;;;;;14.80;73.54;94910.50;5037144;28;20193;-68
2022/10/02 04:17:04;;;;;;;2.65;2.50;;;;;;;14.82;73.55;94919.91;5037595;28;20219;-68
2022/10/02 04:19:48;;;;;;;5.03;2.80;;;;;;;14.86;73.17;94925.66;5051179;28;20185;-68
2022/10/02 04:22:13;;;;;;;2.95;2.72;;;;;;;14.87;72.92;94930.78;5031974;28;20226;-67
2022/10/02 04:25:01;;;;;;;3.72;2.38;;;;;;;14.90;72.99;94943.66;5031990;28;20198;-68
2022/10/02 04:27:40;;;;;;;3.38;3.10;;;;;;;14.95;72.57;94949.25;5027414;28;20186;-67
2022/10/02 04:30:16;;;;;;;2.88;2.67;;;;;;;14.98;72.62;94954.16;5025584;28;20202;-68
2022/10/02 04:32:42;;;;;;;3.05;2.85;;;;;;;15.03;72.38;94955.47;5038302;28;20201;-67
2022/10/02 04:35:15;;;;;;;2.55;2.40;;;;;;;15.04;72.04;94936.72;5030296;28;20257;-67
2022/10/02 04:38:11;;;;;;;3.08;2.85;;;;;;;15.13;71.62;94946.25;5038810;28;20186;-68
2022/10/02 04:41:12;;;;;;;2.97;2.47;;;;;;;15.17;71.66;94949.34;5039974;28;20276;-67
2022/10/02 04:43:44;;;;;;;11.02;2.92;;;;;;;15.15;71.14;94935.47;5040230;28;20499;-67
2022/10/02 04:46:45;;;;;;;2.65;2.28;;;;;;;15.22;70.82;94955.75;5034838;28;20273;-68
2022/10/02 04:49:24;;;;;;;3.40;2.75;;;;;;;15.11;70.61;94950.91;5011799;28;20234;-68
2022/10/02 04:52:13;;;;;;;2.47;2.25;;;;;;;15.06;70.84;94950.63;5014306;28;20380;-68
2022/10/02 04:55:03;;;;;;;2.55;2.42;;;;;;;15.00;71.47;94965.41;5021760;28;20305;-67
2022/10/02 04:57:44;;;;;;;3.28;2.35;;;;;;;15.01;70.24;94974.16;5013370;28;20222;-67
2022/10/02 05:00:19;;;;;;;2.78;2.33;;;;;;;15.04;70.39;94976.47;5019451;28;20194;-67
2022/10/02 05:03:22;;;;;;;3.33;2.55;;;;;;;15.04;70.21;94980.94;5019425;28;20185;-67
2022/10/02 05:05:54;;;;;;;5.22;2.67;;;;;;;15.03;70.11;94988.06;5016448;28;20262;-67
2022/10/02 05:08:22;;;;;;;2.50;2.25;;;;;;;15.08;70.35;94992.81;5010276;28;20198;-67
2022/10/02 05:11:18;;;;;;;2.85;2.55;;;;;;;15.01;70.07;94987.41;5016163;28;20190;-68
2022/10/02 05:13:58;;;;;;;2.50;2.30;;;;;;;14.99;69.93;94990.25;5023420;28;20194;-68
2022/10/02 05:16:38;;;;;;;2.45;2.25;;;;;;;15.10;68.28;94996.09;5029324;28;20652;-67
2022/10/02 05:19:35;;;;;;;3.13;2.45;;;;;;;15.03;67.90;95003.13;5010721;28;20557;-69
2022/10/02 05:22:16;;;;;;;2.40;2.20;;;;;;;15.14;67.40;94997.41;5018915;28;20268;-68
2022/10/02 05:24:47;;;;;;;2.55;2.35;;;;;;;15.23;66.76;94998.94;5025270;28;20204;-68
2022/10/02 05:27:35;;;;;;;2.55;1.85;;;;;;;15.24;65.99;94979.41;5012446;28;20629;-67
2022/10/02 05:30:14;;;;;;;2.35;2.15;;;;;;;15.30;66.20;94996.41;4999781;28;20203;-68
2022/10/02 05:33:14;;;;;;;2.17;2.00;;;;;;;15.43;65.62;94993.97;5016517;28;20186;-66
2022/10/02 05:35:57;;;;;;;5.40;2.38;;;;;;;15.59;64.75;95001.72;5003458;28;20191;-66
2022/10/02 05:38:23;;;;;;;2.47;2.10;;;;;;;15.66;63.45;95004.44;5009437;28;20214;-66
2022/10/02 05:40:51;;;;;;;4.05;2.20;;;;;;;15.80;63.11;94989.59;5021982;28;20230;-66
2022/10/02 05:43:35;;;;;;;2.17;2.03;;;;;;;15.77;61.73;95019.94;5011748;28;20187;-68
2022/10/02 05:46:25;;;;;;;2.38;2.15;;;;;;;15.62;62.63;95005.84;5009916;28;20208;-68
2022/10/02 05:49:01;;;;;;;2.00;1.90;;;;;;;15.58;62.50;95015.16;5010678;28;20227;-67
2022/10/02 05:51:43;;;;;;;3.05;2.30;;;;;;;15.54;61.61;95019.19;5030306;28;20195;-66
2022/10/02 05:54:38;;;;;;;2.80;2.30;;;;;;;15.57;61.37;95042.66;5025618;28;20191;-66
2022/10/02 05:57:10;;;;;;;2.50;2.30;;;;;;;15.59;61.96;95027.41;5025970;28;20187;-66
2022/10/02 05:59:53;;;;;;;3.55;2.13;;;;;;;15.53;60.87;95039.56;5032972;28;20352;-66
2022/10/02 06:02:31;;;;;;;3.08;2.42;;;;;;;15.60;61.73;95056.38;5031328;28;20205;-67
2022/10/02 06:05:11;;;;;;;3.25;2.72;;;;;;;15.70;61.25;95039.41;5023780;28;20237;-67
2022/10/02 06:07:37;;;;;;;2.50;2.30;;;;;;;15.86;60.73;95053.31;5031406;28;20185;-66
2022/10/02 06:10:13;;;;;;;2.10;2.00;;;;;;;15.81;60.19;95058.34;5036014;28;20221;-65
2022/10/02 06:13:01;;;;;;;2.65;2.35;;;;;;;15.76;60.42;95051.94;5027524;28;20187;-65
2022/10/02 06:15:45;;;;;;;2.67;2.47;;;;;;;15.98;59.95;95053.66;5024296;28;20187;-68
2022/10/02 06:18:20;;;;;;;2.70;2.50;;;;;;;15.96;59.67;95076.91;5026380;28;20190;-68
2022/10/02 06:20:53;;;;;;;3.20;2.22;;;;;;;15.99;59.95;95075.72;5034213;28;20185;-68
2022/10/02 06:23:25;;;;;;;4.28;2.47;;;;;;;16.09;59.59;95082.38;5047048;28;20194;-68
2022/10/02 06:25:59;;;;;;;2.50;2.30;;;;;;;16.17;59.58;95102.69;5039529;28;20193;-69
2022/10/02 06:28:50;;;;;;;3.28;2.58;;;;;;;16.00;59.78;95098.56;5052200;28;20252;-68
2022/10/02 06:31:33;;;;;;;3.63;2.60;;;;;;;16.01;60.01;95090.44;5002512;28;20250;-68
2022/10/02 06:33:59;;;;;;;2.97;2.63;;;;;;;16.11;58.93;95090.13;5009451;28;20208;-67
2022/10/02 06:36:44;;;;;;;3.15;2.65;;;;;;;15.96;59.73;95090.16;5002382;28;20282;-66
2022/10/02 06:39:15;;;;;;;4.25;3.30;;;;;;;16.05;60.35;95093.53;5001792;28;20244;-64
2022/10/02 06:41:49;;;;;;;4.43;3.22;;;;;;;16.06;59.69;95101.31;5009135;28;20219;-64
2022/10/02 06:44:24;;;;;;;3.90;3.00;;;;;;;16.11;59.02;95103.41;4992535;28;20240;-65
2022/10/02 06:47:00;;;;;;;3.33;2.80;;;;;;;16.21;58.84;95114.56;4993948;28;20214;-63
2022/10/02 06:49:45;;;;;;;3.33;3.00;;;;;;;16.29;59.04;95116.31;4985881;28;20316;-63
2022/10/02 06:52:30;;;;;;;3.55;3.25;;;;;;;16.28;57.94;95115.47;5018174;28;20194;-64
2022/10/02 06:55:17;;;;;;;2.75;2.50;;;;;;;16.10;58.15;95125.66;4986662;28;20213;-63
2022/10/02 06:57:47;;;;;;;3.53;2.83;;;;;;;16.01;58.02;95113.47;4993448;28;20218;-63
2022/10/02 07:00:17;;;;;;;3.42;3.00;;;;;;;16.22;57.61;95104.78;4995911;28;20189;-64
2022/10/02 07:02:42;;;;;;;3.72;2.78;;;;;;;16.09;57.91;95116.88;5002213;28;20263;-64
2022/10/02 07:05:44;;;;;;;3.33;2.90;;;;;;;16.12;58.54;95117.47;4992562;28;20285;-64
2022/10/02 07:08:24;;;;;;;2.83;2.63;;;;;;;16.30;57.89;95117.94;5011871;28;20202;-63
2022/10/02 07:10:55;;;;;;;2.97;2.67;;;;;;;16.24;58.11;95116.84;5037883;28;20220;-64
2022/10/02 07:13:57;;;;;;;3.13;2.90;;;;;;;16.28;58.18;95122.63;5026476;28;20204;-64
2022/10/02 07:16:45;;;;;;;3.20;2.40;;;;;;;16.23;56.53;95109.91;5032750;28;20188;-64
2022/10/02 07:19:27;;;;;;;2.60;2.40;;;;;;;16.01;57.75;95126.72;5025275;28;20178;-64
2022/10/02 07:22:18;;;;;;;2.35;2.15;;;;;;;15.86;57.04;95106.34;5026881;28;20211;-64
2022/10/02 07:24:52;;;;;;;2.72;2.53;;;;;;;15.84;56.98;95113.63;5029682;28;20182;-64
2022/10/02 07:27:35;;;;;;;3.70;2.28;;;;;;;16.00;57.22;95114.47;5034020;28;20189;-64
2022/10/02 07:30:03;;;;;;;2.28;2.17;;;;;;;15.99;55.98;95112.84;5029943;28;20208;-64
2022/10/02 07:32:54;;;;;;;2.80;2.10;;;;;;;16.01;56.33;95110.81;5029593;28;20194;-65
2022/10/02 07:35:31;;;;;;;3.28;2.28;;;;;;;16.16;54.86;95092.25;5033924;28;20187;-64
2022/10/02 07:38:41;;;;;;;2.63;2.08;;;;;;;16.15;54.48;95106.53;5036729;28;20182;-65
2022/10/02 07:41:25;;;;;;;2.75;2.20;;;;;;;16.20;54.96;95110.28;5031490;28;20216;-64
2022/10/02 07:44:12;;;;;;;2.60;2.35;;;;;;;16.41;54.67;95119.28;5022069;28;20191;-64
2022/10/02 07:46:49;;;;;;;2.75;2.08;;;;;;;16.41;55.29;95119.28;5024619;28;20182;-64
2022/10/02 07:49:46;;;;;;;2.30;2.20;;;;;;;16.65;55.40;95124.31;5029732;28;20314;-66
2022/10/02 07:52:40;;;;;;;2.47;1.90;;;;;;;16.66;54.17;95125.13;5026314;28;20205;-66
2022/10/02 07:55:19;;;;;;;1.88;1.77;;;;;;;16.75;52.12;95138.09;5020324;28;20194;-65
2022/10/02 07:58:01;;;;;;;1.90;1.70;;;;;;;16.66;51.91;95119.81;5025633;28;20193;-65
2022/10/02 08:00:31;;;;;;;1.95;1.50;;;;;;;16.68;50.54;95149.63;5017796;28;20210;-65
2022/10/02 08:02:59;;;;;;;3.00;1.50;;;;;;;16.66;49.50;95127.78;5036996;28;20181;-65
2022/10/02 08:05:32;;;;;;;2.38;1.63;;;;;;;16.62;49.74;95151.22;5033831;28;20214;-64
2022/10/02 08:08:19;;;;;;;4.20;1.50;;;;;;;16.69;50.10;95146.81;5020822;28;20207;-66
2022/10/02 08:10:50;;;;;;;1.70;1.60;;;;;;;16.82;49.40;95130.25;5032278;28;20198;-65
2022/10/02 08:13:31;;;;;;;3.47;1.65;;;;;;;16.98;49.88;95155.75;5036215;28;20187;-66
2022/10/02 08:15:57;;;;;;;1.52;1.40;;;;;;;17.01;49.08;95154.56;5034548;28;20193;-66
2022/10/02 08:18:32;;;;;;;1.60;1.42;;;;;;;16.99;49.99;95160.03;5038855;28;20636;-66
2022/10/02 08:20:59;;;;;;;2.08;1.63;;;;;;;16.80;50.78;95165.97;5033707;28;20189;-67
2022/10/02 08:23:30;;;;;;;1.90;1.80;;;;;;;16.88;50.52;95132.13;5030765;28;20191;-67
2022/10/02 08:26:05;;;;;;;1.50;1.40;;;;;;;16.81;50.47;95186.19;5026112;28;20277;-68
2022/10/02 08:28:37;;;;;;;2.92;1.50;;;;;;;16.77;50.09;95164.50;5038638;28;20209;-68
2022/10/02 08:31:09;;;;;;;1.73;1.50;;;;;;;16.76;49.98;95171.63;5037233;28;20196;-68
2022/10/02 08:33:34;;;;;;;1.38;1.20;;;;;;;16.94;50.11;95160.59;5024714;28;20281;-67
2022/10/02 08:36:15;;;;;;;2.97;1.63;;;;;;;17.08;49.88;95166.06;5035918;28;20269;-68
2022/10/02 08:38:53;;;;;;;1.73;1.63;;;;;;;17.14;50.34;95163.47;5027500;28;20182;-67
2022/10/02 08:41:49;;;;;;;3.05;1.42;;;;;;;17.19;48.77;95168.25;5036538;28;20190;-67
2022/10/02 08:44:39;;;;;;;1.40;1.30;;;;;;;17.17;47.93;95178.22;5037610;28;20301;-66
2022/10/02 08:47:43;;;;;;;2.88;1.45;;;;;;;17.15;49.15;95170.44;5026210;28;20225;-66
2022/10/02 08:50:34;;;;;;;1.70;1.60;;;;;;;17.44;48.08;95181.16;5015599;28;20310;-66
2022/10/02 08:53:43;;;;;;;2.13;1.55;;;;;;;17.67;47.31;95175.59;4934317;29;20204;-66
2022/10/02 08:56:22;;;;;;;1.48;1.38;;;;;;;17.72;46.47;95182.03;4937223;29;20212;-65
2022/10/02 08:59:12;;;;;;;1.42;1.33;;;;;;;17.71;46.14;95185.69;4932871;29;20254;-65
2022/10/02 09:02:08;;;;;;;1.30;1.20;;;;;;;17.78;45.26;95141.34;4949580;28;20246;-66
2022/10/02 09:05:10;;;;;;;1.40;1.30;;;;;;;17.70;45.79;95153.97;4955425;28;20231;-65
2022/10/02 09:07:56;;;;;;;1.75;1.25;;;;;;;17.62;46.10;95145.13;4959011;28;20209;-64
2022/10/02 09:10:44;;;;;;;1.73;1.10;;;;;;;17.86;46.29;95153.72;4950697;29;20252;-63
2022/10/02 09:13:34;;;;;;;1.70;1.60;;;;;;;17.98;46.18;95168.13;4930845;29;20537;-65
2022/10/02 09:16:41;;;;;;;2.67;1.50;;;;;;;18.01;45.70;95183.69;4949502;28;20233;-64
2022/10/02 09:19:40;;;;;;;1.75;1.52;;;;;;;17.94;45.00;95160.75;4918579;29;20257;-63
2022/10/02 09:22:29;;;;;;;1.75;1.40;;;;;;;17.90;45.86;95159.47;4821250;29;20308;-63
2022/10/02 09:25:13;;;;;;;1.65;1.33;;;;;;;17.98;45.29;95170.78;4836072;29;20885;-65
2022/10/02 09:27:57;;;;;;;1.80;1.70;;;;;;;18.04;45.19;95167.38;4811136;29;20198;-64
2022/10/02 09:31:02;;;;;;;1.83;1.73;;;;;;;18.14;44.93;95187.47;4849199;29;20765;-64
2022/10/02 09:33:58;;;;;;;2.78;1.60;;;;;;;18.07;44.65;95156.31;4891405;29;20306;-65
2022/10/02 09:36:38;;;;;;;1.70;1.55;;;;;;;18.04;43.99;95163.84;4877834;29;20279;-65
2022/10/02 09:39:29;;;;;;;3.67;1.38;;;;;;;17.76;44.42;95159.34;4883860;29;20221;-65
2022/10/02 09:42:21;;;;;;;1.90;1.70;;;;;;;17.90;44.67;95152.31;4865110;29;20199;-65
2022/10/02 09:45:44;;;;;;;1.85;1.67;;;;;;;18.44;43.47;95156.97;4867947;29;20199;-65
2022/10/02 09:48:30;;;;;;;1.40;1.30;;;;;;;18.55;42.83;95160.91;4867600;29;20203;-66
2022/10/02 09:51:14;;;;;;;1.50;1.40;;;;;;;18.73;43.08;95160.34;4846224;29;20200;-65
2022/10/02 09:54:20;;;;;;;1.85;1.40;;;;;;;19.05;41.65;95174.03;4850293;29;20200;-64
2022/10/02 09:57:05;;;;;;;2.38;1.20;;;;;;;18.81;41.57;95160.22;4896191;29;20183;-66
2022/10/02 09:59:34;;;;;;;1.52;1.42;;;;;;;19.01;41.89;95148.81;4936890;28;20645;-67
2022/10/02 10:02:09;;;;;;;3.08;1.50;;;;;;;18.77;42.13;95166.16;4938436;28;20237;-66
2022/10/02 10:04:46;;;;;;;2.28;1.50;;;;;;;18.78;42.26;95165.13;4953595;28;20193;-64
2022/10/02 10:07:31;;;;;;;3.30;1.25;;;;;;;18.97;40.99;95177.69;4957873;28;20205;-65
2022/10/02 10:10:17;;;;;;;1.95;1.15;;;;;;;18.91;41.01;95173.16;5029439;28;20264;-65
2022/10/02 10:13:01;;;;;;;2.78;1.40;;;;;;;18.66;41.01;95156.84;5007794;28;20642;-65
2022/10/02 10:15:41;;;;;;;2.25;1.20;;;;;;;18.67;41.42;95151.31;5022482;28;20194;-66
2022/10/02 10:18:28;;;;;;;1.83;1.40;;;;;;;18.91;41.44;95152.66;5014797;28;20193;-67
2022/10/02 10:21:26;;;;;;;1.95;1.33;;;;;;;18.95;41.11;95155.75;5009749;28;20186;-67
2022/10/02 10:24:18;;;;;;;1.42;1.33;;;;;;;18.79;41.84;95162.28;5007097;28;20233;-67
2022/10/02 10:27:20;;;;;;;1.20;1.20;;;;;;;18.92;41.09;95153.47;5019794;28;20203;-67
2022/10/02 10:29:55;;;;;;;1.23;1.13;;;;;;;18.92;41.12;95159.66;5008892;28;20341;-67
2022/10/02 10:32:48;;;;;;;1.50;1.40;;;;;;;19.09;41.02;95157.44;5013408;28;20214;-68
2022/10/02 10:38:30;;;;;;;3.22;1.25;;;;;;;19.01;41.21;95130.97;5015091;28;20215;-68
2022/10/02 10:39:09;;;;;;;2.90;1.20;;;;;;;19.27;40.36;95129.38;5012558;28;20209;-68
2022/10/02 10:41:38;;;;;;;1.13;1.02;;;;;;;19.41;39.75;95127.56;5013177;28;20206;-69
2022/10/02 10:44:27;;;;;;;2.05;1.02;;;;;;;19.61;39.88;95147.06;5016731;28;20192;-67
2022/10/02 10:47:17;;;;;;;1.67;1.05;;;;;;;19.61;39.73;95149.72;5003977;28;20221;-68
2022/10/02 10:50:01;;;;;;;1.45;1.15;;;;;;;19.66;39.77;95141.13;5025648;28;20231;-69
2022/10/02 10:52:45;;;;;;;2.25;1.50;;;;;;;20.11;39.52;95142.13;5033556;28;20572;-68
2022/10/02 10:55:31;;;;;;;1.55;1.30;;;;;;;20.35;38.99;95150.53;5027847;28;20186;-68
2022/10/02 10:58:34;;;;;;;1.58;1.20;;;;;;;20.30;39.45;95144.97;5029599;28;20255;-69
2022/10/02 11:01:18;;;;;;;1.10;1.00;;;;;;;20.17;39.25;95129.81;5037040;28;20208;-64
2022/10/02 11:04:02;;;;;;;1.08;0.98;;;;;;;20.49;37.84;95117.38;5030908;28;20182;-65
2022/10/02 11:06:38;;;;;;;1.50;1.15;;;;;;;20.69;37.94;95117.38;5021652;28;20209;-64
2022/10/02 11:09:25;;;;;;;1.50;1.40;;;;;;;20.40;36.73;95119.47;5023214;28;20214;-65
2022/10/02 11:12:03;;;;;;;1.83;1.20;;;;;;;20.48;37.09;95121.91;5021933;28;20232;-65
2022/10/02 11:14:31;;;;;;;1.08;1.08;;;;;;;20.58;37.67;95124.19;5035315;28;20276;-65
2022/10/02 11:17:15;;;;;;;2.78;1.40;;;;;;;20.62;38.00;95128.06;5038198;28;20225;-67
2022/10/02 11:19:59;;;;;;;1.67;1.08;;;;;;;20.62;37.92;95137.94;5018837;28;20962;-66
2022/10/02 11:23:01;;;;;;;1.50;1.40;;;;;;;20.75;37.05;95124.53;5025252;28;20259;-65
2022/10/02 11:25:45;;;;;;;1.40;1.30;;;;;;;20.74;36.88;95124.72;5030427;28;20262;-65
2022/10/02 11:28:39;;;;;;;2.28;1.27;;;;;;;20.80;36.96;95130.06;5018494;28;20644;-64
2022/10/02 11:31:33;;;;;;;3.17;1.00;;;;;;;20.62;36.83;95132.59;5013503;28;20209;-65
2022/10/02 11:34:23;;;;;;;2.25;1.10;;;;;;;20.66;36.20;95129.28;5036278;28;20181;-67
2022/10/02 11:37:18;;;;;;;0.95;0.90;;;;;;;20.76;36.34;95134.16;5020662;28;20222;-67
2022/10/02 11:40:02;;;;;;;1.33;1.02;;;;;;;20.82;36.08;95132.50;5024772;28;20190;-64
2022/10/02 11:42:40;;;;;;;1.80;1.00;;;;;;;21.04;36.21;95125.81;5015714;28;20195;-67
2022/10/02 11:45:31;;;;;;;0.90;0.90;;;;;;;21.10;35.45;95118.78;5022520;28;20206;-66
2022/10/02 11:47:59;;;;;;;1.00;0.90;;;;;;;21.00;35.60;95123.78;5035600;28;20322;-67
2022/10/02 11:50:40;;;;;;;1.00;1.00;;;;;;;21.15;35.78;95130.47;5039507;28;20241;-67
2022/10/02 11:53:56;;;;;;;3.85;1.10;;;;;;;21.01;35.24;95142.28;5025467;28;20244;-66
2022/10/02 11:56:42;;;;;;;0.90;0.90;;;;;;;20.78;35.75;95133.97;5026483;28;20256;-66
2022/10/02 11:59:30;;;;;;;1.27;1.05;;;;;;;21.25;35.88;95126.50;5023388;28;20182;-65
2022/10/02 12:02:01;;;;;;;1.98;1.10;;;;;;;22.01;34.45;95121.00;5035888;28;20186;-64
2022/10/02 12:04:56;;;;;;;1.23;0.90;;;;;;;21.91;34.27;95128.72;5029547;28;20264;-66
2022/10/02 12:07:27;;;;;;;1.20;1.00;;;;;;;21.74;34.18;95130.31;5034636;28;20210;-66
2022/10/02 12:10:23;;;;;;;1.20;1.10;;;;;;;22.10;34.06;95128.75;5039576;28;20214;-67
2022/10/02 12:12:58;;;;;;;2.33;1.27;;;;;;;21.58;34.66;95121.78;5011698;28;20213;-65
2022/10/02 12:15:45;;;;;;;1.58;0.93;;;;;;;21.68;34.15;95115.13;5027716;28;20185;-65
2022/10/02 12:18:13;;;;;;;1.17;1.08;;;;;;;21.55;34.58;95118.75;5022467;28;20213;-67
2022/10/02 12:26:58;;;;;;;1.40;1.30;;;;;;;31.54;20.38;95104.34;5038425;28;20691;-66
2022/10/02 12:29:39;;;;;;;1.27;1.17;;;;;;;36.13;15.03;95111.38;5037523;28;20206;-68
2022/10/02 12:32:21;;;;;;;1.73;1.63;;;;;;;36.90;13.56;95126.63;5034653;28;20266;-66
2022/10/02 12:35:04;;;;;;;1.55;1.10;;;;;;;37.19;13.35;95123.38;5015815;28;20182;-65
2022/10/02 12:37:38;;;;;;;1.40;1.30;;;;;;;40.07;10.85;95118.75;5015552;28;20217;-66
2022/10/02 12:40:30;;;;;;;1.20;1.10;;;;;;;41.18;10.42;95119.88;5017786;28;20193;-67
2022/10/02 12:43:20;;;;;;;1.00;1.00;;;;;;;41.91;9.47;95129.19;5030520;28;20272;-66
2022/10/02 12:46:23;;;;;;;1.40;1.30;;;;;;;40.09;10.66;95119.22;5025207;28;20180;-67